createdAt,value
2023-05-25T00:00:53.342Z,22.27
2023-05-25T00:03:33.931Z,25.53
2023-05-25T00:06:07.915Z,22.63
2023-05-25T00:08:41.594Z,26.50
2023-05-25T00:11:17.078Z,25.55
2023-05-25T00:13:52.670Z,24.13
2023-05-25T00:16:26.396Z,23.40
2023-05-25T00:19:03.844Z,24.15
2023-05-25T00:21:38.308Z,21.15
2023-05-25T00:24:12.001Z,26.13
2023-05-25T00:26:45.571Z,24.45
2023-05-25T00:29:21.511Z,27.77
2023-05-25T00:31:55.660Z,27.52
2023-05-25T00:34:29.228Z,21.50
2023-05-25T00:37:02.848Z,26.45
2023-05-25T00:39:36.391Z,31.42
2023-05-25T00:42:10.079Z,27.35
2023-05-25T00:44:45.519Z,25.50
2023-05-25T00:47:19.237Z,29.75
2023-05-25T00:49:52.875Z,24.38
2023-05-25T00:52:27.194Z,25.30
2023-05-25T00:55:03.649Z,28.80
2023-05-25T00:57:38.746Z,34.25
2023-05-25T01:00:15.463Z,29.00
2023-05-25T01:02:56.534Z,24.23
2023-05-25T01:05:32.448Z,27.98
2023-05-25T01:08:10.130Z,24.67
2023-05-25T01:10:44.553Z,26.45
2023-05-25T01:13:20.522Z,27.30
2023-05-25T01:15:55.883Z,27.83
2023-05-25T01:18:29.470Z,25.52
2023-05-25T01:21:15.140Z,26.27
2023-05-25T01:23:52.324Z,29.67
2023-05-25T01:26:30.942Z,24.13
2023-05-25T01:29:07.689Z,29.75
2023-05-25T01:31:42.654Z,29.02
2023-05-25T01:34:18.219Z,27.27
2023-05-25T01:36:53.530Z,30.85
2023-05-25T01:39:27.105Z,28.33
2023-05-25T01:42:01.872Z,25.52
2023-05-25T01:44:35.702Z,22.00
2023-05-25T01:47:17.960Z,30.70
2023-05-25T01:49:59.627Z,31.92
2023-05-25T01:52:39.785Z,29.13
2023-05-25T01:55:16.133Z,24.45
2023-05-25T01:57:57.969Z,25.30
2023-05-25T02:00:32.909Z,27.30
2023-05-25T02:03:07.330Z,24.13
2023-05-25T02:05:43.901Z,26.75
2023-05-25T02:08:19.050Z,23.83
2023-05-25T02:10:52.681Z,23.15
2023-05-25T02:13:26.474Z,22.67
2023-05-25T02:16:00.207Z,30.05
2023-05-25T02:18:34.438Z,25.77
2023-05-25T02:21:08.101Z,28.45
2023-05-25T02:23:43.144Z,23.90
2023-05-25T02:26:16.855Z,28.80
2023-05-25T02:28:50.497Z,25.77
2023-05-25T02:31:24.592Z,27.65
2023-05-25T02:33:58.329Z,26.15
2023-05-25T02:36:33.095Z,22.08
2023-05-25T02:39:09.024Z,28.90
2023-05-25T02:41:44.286Z,27.27
2023-05-25T02:44:17.853Z,21.45
2023-05-25T02:46:51.414Z,26.10
2023-05-25T02:49:25.065Z,23.75
2023-05-25T02:51:59.614Z,25.08
2023-05-25T02:54:34.559Z,29.58
2023-05-25T02:57:08.566Z,30.60
2023-05-25T02:59:42.199Z,25.85
2023-05-25T03:02:18.619Z,28.40
2023-05-25T03:04:53.888Z,27.77
2023-05-25T03:07:28.017Z,27.75
2023-05-25T03:10:03.786Z,24.92
2023-05-25T03:12:37.387Z,25.67
2023-05-25T03:15:13.265Z,27.95
2023-05-25T03:17:46.994Z,29.25
2023-05-25T03:20:21.591Z,29.48
2023-05-25T03:22:57.107Z,25.92
2023-05-25T03:25:32.393Z,25.73
2023-05-25T03:28:06.790Z,28.35
2023-05-25T03:30:40.383Z,27.10
2023-05-25T03:33:15.717Z,23.42
2023-05-25T03:35:53.192Z,25.80
2023-05-25T03:38:26.722Z,26.35
2023-05-25T03:41:01.753Z,28.40
2023-05-25T03:43:35.288Z,22.45
2023-05-25T03:46:11.688Z,24.10
2023-05-25T03:48:45.512Z,21.65
2023-05-25T03:51:19.123Z,24.33
2023-05-25T03:53:52.732Z,25.00
2023-05-25T03:56:27.695Z,21.30
2023-05-25T03:59:01.387Z,21.88
2023-05-25T04:01:38.246Z,23.15
2023-05-25T04:04:11.914Z,25.27
2023-05-25T04:06:45.971Z,24.35
2023-05-25T04:09:19.857Z,27.85
2023-05-25T04:11:54.816Z,24.80
2023-05-25T04:14:28.372Z,31.38
2023-05-25T04:17:02.603Z,27.00
2023-05-25T04:19:36.156Z,21.52
2023-05-25T04:22:09.922Z,26.15
2023-05-25T04:24:43.459Z,23.98
2023-05-25T04:27:20.376Z,20.52
2023-05-25T04:29:54.339Z,22.17
2023-05-25T04:32:49.587Z,20.98
2023-05-25T04:35:50.632Z,17.95
2023-05-25T04:38:25.116Z,23.52
2023-05-25T04:40:58.975Z,20.10
2023-05-25T04:43:34.508Z,22.40
2023-05-25T04:46:09.382Z,20.50
2023-05-25T04:48:43.834Z,18.27
2023-05-25T04:51:17.399Z,19.35
2023-05-25T04:53:51.292Z,16.58
2023-05-25T04:56:26.554Z,18.17
2023-05-25T04:59:01.520Z,19.25
2023-05-25T05:01:40.720Z,19.23
2023-05-25T05:04:16.508Z,18.13
2023-05-25T05:06:50.437Z,19.05
2023-05-25T05:09:29.574Z,16.50
2023-05-25T05:12:06.412Z,18.23
2023-05-25T05:14:47.981Z,20.60
2023-05-25T05:17:21.768Z,15.35
2023-05-25T05:19:56.597Z,21.23
2023-05-25T05:22:31.003Z,20.02
2023-05-25T05:25:04.749Z,19.52
2023-05-25T05:27:38.684Z,18.23
2023-05-25T05:30:22.346Z,16.35
2023-05-25T05:32:56.111Z,25.77
2023-05-25T05:35:33.388Z,16.98
2023-05-25T05:38:13.414Z,15.50
2023-05-25T05:40:46.990Z,15.27
2023-05-25T05:43:25.715Z,16.80
2023-05-25T05:46:01.314Z,15.90
2023-05-25T05:48:35.700Z,12.95
2023-05-25T05:51:09.534Z,14.35
2023-05-25T05:53:43.933Z,17.25
2023-05-25T05:56:20.811Z,15.90
2023-05-25T05:58:54.836Z,18.60
2023-05-25T06:01:29.810Z,16.73
2023-05-25T06:04:03.369Z,15.02
2023-05-25T06:06:38.654Z,14.75
2023-05-25T06:09:12.830Z,18.80
2023-05-25T06:11:46.947Z,16.42
2023-05-25T06:14:20.583Z,17.08
2023-05-25T06:16:55.665Z,19.55
2023-05-25T06:19:31.654Z,20.67
2023-05-25T06:22:05.329Z,13.77
2023-05-25T06:24:38.895Z,17.98
2023-05-25T06:27:13.544Z,12.57
2023-05-25T06:29:47.273Z,12.70
2023-05-25T06:32:22.602Z,13.90
2023-05-25T06:34:56.253Z,15.85
2023-05-25T06:37:35.265Z,16.00
2023-05-25T06:40:11.413Z,17.10
2023-05-25T06:42:45.244Z,17.17
2023-05-25T06:45:54.015Z,16.65
2023-05-25T06:48:29.094Z,15.25
2023-05-25T06:51:02.738Z,21.65
2023-05-25T06:53:36.537Z,13.43
2023-05-25T06:56:10.171Z,16.80
2023-05-25T06:58:43.718Z,13.75
2023-05-25T07:01:17.404Z,12.55
2023-05-25T07:03:52.379Z,16.48
2023-05-25T07:06:25.936Z,14.02
2023-05-25T07:08:59.572Z,16.25
2023-05-25T07:11:33.095Z,14.38
2023-05-25T07:14:06.761Z,19.13
2023-05-25T07:16:40.295Z,16.42
2023-05-25T07:19:15.300Z,16.27
2023-05-25T07:21:48.893Z,17.85
2023-05-25T07:24:22.423Z,24.80
2023-05-25T07:26:55.986Z,12.77
2023-05-25T07:29:29.654Z,14.38
2023-05-25T07:32:03.282Z,16.27
2023-05-25T07:34:38.409Z,19.35
2023-05-25T07:37:12.146Z,23.13
2023-05-25T07:39:45.799Z,17.83
2023-05-25T07:42:21.880Z,16.45
2023-05-25T07:44:55.583Z,18.25
2023-05-25T07:47:29.537Z,21.08
2023-05-25T07:50:04.759Z,17.25
2023-05-25T07:52:39.422Z,16.02
2023-05-25T07:55:13.126Z,18.63
2023-05-25T07:57:46.785Z,15.63
2023-05-25T08:00:21.368Z,12.82
2023-05-25T08:02:55.329Z,17.42
2023-05-25T08:05:30.600Z,17.00
2023-05-25T08:08:04.200Z,19.98
2023-05-25T08:10:37.824Z,20.25
2023-05-25T08:13:11.399Z,25.85
2023-05-25T08:15:45.082Z,19.95
2023-05-25T08:18:19.492Z,19.98
2023-05-25T08:20:54.455Z,18.48
2023-05-25T08:23:28.027Z,29.23
2023-05-25T08:26:05.938Z,18.42
2023-05-25T08:28:45.291Z,17.02
2023-05-25T08:31:18.931Z,19.48
2023-05-25T08:33:52.532Z,17.98
2023-05-25T08:36:28.101Z,17.33
2023-05-25T08:39:01.866Z,19.77
2023-05-25T08:41:37.359Z,17.40
2023-05-25T08:44:11.090Z,16.85
2023-05-25T08:46:47.845Z,22.98
2023-05-25T08:49:23.609Z,23.60
2023-05-25T08:51:58.808Z,23.63
2023-05-25T08:54:36.129Z,15.73
2023-05-25T08:57:18.434Z,22.38
2023-05-25T08:59:58.176Z,18.60
2023-05-25T09:02:37.152Z,12.20
2023-05-25T09:05:11.159Z,17.63
2023-05-25T09:07:46.721Z,14.85
2023-05-25T09:10:20.651Z,16.83
2023-05-25T09:12:55.196Z,20.08
2023-05-25T09:15:28.874Z,19.30
2023-05-25T09:18:02.514Z,19.95
2023-05-25T09:20:36.233Z,15.95
2023-05-25T09:23:11.515Z,17.45
2023-05-25T09:25:46.056Z,19.30
2023-05-25T09:30:57.985Z,14.90
2023-05-25T09:33:31.963Z,16.55
2023-05-25T09:36:06.906Z,19.50
2023-05-25T09:38:42.252Z,14.82
2023-05-25T09:41:16.466Z,17.92
2023-05-25T09:46:29.890Z,16.35
2023-05-25T09:49:04.130Z,15.50
2023-05-25T09:51:37.845Z,13.65
2023-05-25T09:54:13.179Z,17.98
2023-05-25T09:56:46.940Z,15.27
2023-05-25T09:59:20.531Z,14.68
2023-05-25T10:01:54.555Z,14.23
2023-05-25T10:04:28.266Z,16.27
2023-05-25T10:07:02.814Z,13.50
2023-05-25T10:09:41.729Z,15.05
2023-05-25T10:12:20.319Z,13.43
2023-05-25T10:14:54.747Z,17.58
2023-05-25T10:17:32.730Z,14.40
2023-05-25T10:20:10.227Z,17.00
2023-05-25T10:22:49.548Z,21.05
2023-05-25T10:25:28.796Z,14.15
2023-05-25T10:28:06.809Z,13.27
2023-05-25T10:30:42.390Z,13.45
2023-05-25T10:33:16.089Z,13.40
2023-05-25T10:36:08.567Z,14.82
2023-05-25T10:38:44.863Z,16.00
2023-05-25T10:41:21.588Z,15.43
2023-05-25T10:43:55.570Z,13.82
2023-05-25T10:46:30.399Z,14.65
2023-05-25T10:49:04.116Z,14.45
2023-05-25T10:51:43.892Z,14.27
2023-05-25T10:54:18.975Z,16.83
2023-05-25T10:57:14.430Z,11.73
2023-05-25T10:59:51.652Z,13.00
2023-05-25T11:02:25.453Z,13.18
2023-05-25T11:05:39.707Z,13.27
2023-05-25T11:08:14.887Z,12.68
2023-05-25T11:10:54.695Z,11.65
2023-05-25T11:13:40.393Z,22.90
2023-05-25T11:16:22.205Z,15.80
2023-05-25T11:18:58.667Z,17.67
2023-05-25T11:21:45.921Z,14.75
2023-05-25T11:24:19.581Z,16.85
2023-05-25T11:26:58.223Z,12.82
2023-05-25T11:29:37.359Z,15.40
2023-05-25T11:32:15.492Z,19.38
2023-05-25T11:34:49.824Z,12.70
2023-05-25T11:37:25.636Z,14.57
2023-05-25T11:39:59.219Z,14.70
2023-05-25T11:42:33.910Z,13.52
2023-05-25T11:45:12.771Z,14.60
2023-05-25T11:47:46.330Z,13.63
2023-05-25T11:50:19.916Z,12.65
2023-05-25T11:52:54.109Z,12.65
2023-05-25T11:55:27.664Z,12.70
2023-05-25T11:58:01.203Z,11.70
2023-05-25T12:00:36.268Z,13.77
2023-05-25T12:03:10.676Z,11.10
2023-05-25T12:05:44.688Z,14.57
2023-05-25T12:08:32.629Z,12.93
2023-05-25T12:11:06.764Z,21.48
2023-05-25T12:13:42.566Z,14.07
2023-05-25T12:16:18.041Z,10.73
2023-05-25T12:18:52.177Z,14.57
2023-05-25T12:21:26.514Z,11.90
2023-05-25T12:24:01.509Z,14.27
2023-05-25T12:26:35.104Z,12.82
2023-05-25T12:29:10.289Z,11.65
2023-05-25T12:31:45.458Z,10.60
2023-05-25T12:34:20.428Z,11.25
2023-05-25T12:36:55.359Z,12.02
2023-05-25T12:39:39.054Z,14.90
2023-05-25T12:42:15.769Z,14.35
2023-05-25T12:44:55.331Z,11.18
2023-05-25T12:47:32.404Z,10.75
2023-05-25T12:50:13.964Z,9.65
2023-05-25T12:52:49.316Z,8.85
2023-05-25T12:55:27.305Z,11.10
2023-05-25T12:58:04.786Z,12.18
2023-05-25T13:00:40.169Z,10.82
2023-05-25T13:03:15.219Z,13.93
2023-05-25T13:05:48.893Z,11.48
2023-05-25T13:08:22.597Z,14.02
2023-05-25T13:10:57.989Z,13.82
2023-05-25T13:13:31.600Z,13.95
2023-05-25T13:16:05.538Z,20.20
2023-05-25T13:18:40.543Z,14.65
2023-05-25T13:21:14.445Z,12.77
2023-05-25T13:23:48.302Z,11.20
2023-05-25T13:26:21.964Z,13.38
2023-05-25T13:28:55.620Z,14.85
2023-05-25T13:31:29.155Z,12.85
2023-05-25T13:34:04.497Z,11.93
2023-05-25T13:36:38.058Z,13.35
2023-05-25T13:39:13.784Z,14.65
2023-05-25T13:41:48.196Z,13.57
2023-05-25T13:44:21.808Z,11.18
2023-05-25T13:46:55.457Z,16.48
2023-05-25T13:49:30.495Z,13.32
2023-05-25T13:52:04.032Z,12.43
2023-05-25T13:54:37.790Z,12.70
2023-05-25T13:57:11.491Z,15.45
2023-05-25T13:59:45.119Z,11.02
2023-05-25T14:02:19.072Z,11.75
2023-05-25T14:04:54.148Z,11.75
2023-05-25T14:07:27.762Z,19.35
2023-05-25T14:10:01.553Z,13.93
2023-05-25T14:12:35.089Z,12.27
2023-05-25T14:15:10.139Z,14.10
2023-05-25T14:17:43.849Z,11.52
2023-05-25T14:20:25.345Z,13.38
2023-05-25T14:22:59.165Z,13.47
2023-05-25T14:25:32.725Z,15.40
2023-05-25T14:28:06.458Z,12.88
2023-05-25T14:30:40.181Z,11.88
2023-05-25T14:33:15.810Z,12.23
2023-05-25T14:35:51.010Z,12.10
2023-05-25T14:38:24.534Z,11.45
2023-05-25T14:40:58.068Z,11.68
2023-05-25T14:43:31.944Z,12.93
2023-05-25T14:46:06.609Z,11.25
2023-05-25T14:48:40.179Z,13.95
2023-05-25T14:51:15.139Z,16.60
2023-05-25T14:53:48.828Z,12.40
2023-05-25T14:56:23.144Z,15.75
2023-05-25T14:58:56.674Z,10.65
2023-05-25T15:01:30.354Z,13.40
2023-05-25T15:04:04.328Z,12.45
2023-05-25T15:06:40.124Z,14.20
2023-05-25T15:09:15.921Z,13.15
2023-05-25T15:11:49.513Z,17.73
2023-05-25T15:14:23.303Z,13.57
2023-05-25T15:16:57.237Z,11.02
2023-05-25T15:19:30.833Z,14.07
2023-05-25T15:22:06.040Z,15.20
2023-05-25T15:24:39.746Z,13.27
2023-05-25T15:27:13.545Z,15.85
2023-05-25T15:29:47.222Z,15.20
2023-05-25T15:32:20.852Z,15.27
2023-05-25T15:34:54.463Z,13.60
2023-05-25T15:37:31.004Z,17.23
2023-05-25T15:40:05.373Z,13.75
2023-05-25T15:42:38.963Z,15.02
2023-05-25T15:45:13.533Z,21.00
2023-05-25T15:47:47.323Z,17.02
2023-05-25T15:50:21.094Z,18.63
2023-05-25T15:52:56.089Z,21.77
2023-05-25T15:55:29.620Z,17.95
2023-05-25T15:58:03.128Z,16.80
2023-05-25T16:00:36.655Z,22.30
2023-05-25T16:03:10.232Z,20.48
2023-05-25T16:05:44.017Z,22.42
2023-05-25T16:08:19.199Z,24.30
2023-05-25T16:10:52.746Z,18.75
2023-05-25T16:13:26.299Z,28.08
2023-05-25T16:15:59.887Z,22.45
2023-05-25T16:18:33.501Z,19.08
2023-05-25T16:21:07.393Z,28.60
2023-05-25T16:23:42.484Z,25.55
2023-05-25T16:26:16.359Z,20.27
2023-05-25T16:28:49.916Z,22.83
2023-05-25T16:31:23.589Z,19.35
2023-05-25T16:33:57.213Z,17.80
2023-05-25T16:36:30.741Z,25.55
2023-05-25T16:39:05.953Z,22.33
2023-05-25T16:41:41.130Z,26.13
2023-05-25T16:44:15.585Z,26.27
2023-05-25T16:46:49.251Z,20.75
2023-05-25T16:49:22.960Z,22.17
2023-05-25T16:51:56.612Z,23.17
2023-05-25T16:54:31.588Z,23.35
2023-05-25T16:57:07.166Z,21.58
2023-05-25T16:59:41.046Z,40.95
2023-05-25T17:02:14.593Z,20.55
2023-05-25T17:04:48.551Z,24.67
2023-05-25T17:07:22.358Z,22.75
2023-05-25T17:09:57.427Z,21.25
2023-05-25T17:12:31.010Z,24.75
2023-05-25T17:15:05.232Z,25.08
2023-05-25T17:17:39.392Z,24.50
2023-05-25T17:20:13.219Z,24.42
2023-05-25T17:22:47.092Z,28.92
2023-05-25T17:25:22.234Z,23.83
2023-05-25T17:27:55.890Z,29.15
2023-05-25T17:30:29.488Z,23.08
2023-05-25T17:33:03.168Z,23.05
2023-05-25T17:35:36.722Z,27.08
2023-05-25T17:38:10.282Z,24.73
2023-05-25T17:40:45.399Z,34.45
2023-05-25T17:43:19.101Z,28.33
2023-05-25T17:45:52.938Z,27.48
2023-05-25T17:48:26.683Z,34.38
2023-05-25T17:51:00.194Z,35.97
2023-05-25T17:53:33.764Z,30.90
2023-05-25T17:56:09.583Z,38.17
2023-05-25T17:58:47.323Z,30.40
2023-05-25T18:01:21.448Z,26.48
2023-05-25T18:03:55.316Z,25.92
2023-05-25T18:06:29.424Z,20.20
2023-05-25T18:09:03.927Z,28.08
2023-05-25T18:11:38.979Z,45.63
2023-05-25T18:14:12.734Z,35.40
2023-05-25T18:16:46.567Z,31.83
2023-05-25T18:19:20.605Z,28.00
2023-05-25T18:21:54.234Z,47.15
2023-05-25T18:24:28.032Z,35.40
2023-05-25T18:27:04.814Z,34.53
2023-05-25T18:29:38.477Z,32.85
2023-05-25T18:32:12.195Z,26.77
2023-05-25T18:34:46.197Z,31.20
2023-05-25T18:37:21.828Z,38.90
2023-05-25T18:39:55.485Z,33.83
2023-05-25T18:42:30.574Z,35.17
2023-05-25T18:45:04.317Z,36.17
2023-05-25T18:47:38.155Z,33.47
2023-05-25T18:50:17.552Z,30.23
2023-05-25T18:52:51.615Z,29.42
2023-05-25T18:55:25.341Z,33.17
2023-05-25T18:58:01.696Z,32.03
2023-05-25T19:00:35.676Z,37.30
2023-05-25T19:03:09.405Z,32.42
2023-05-25T19:05:43.201Z,34.75
2023-05-25T19:08:17.119Z,36.28
2023-05-25T19:10:50.718Z,34.63
2023-05-25T19:13:25.756Z,31.05
2023-05-25T19:15:59.630Z,38.50
2023-05-25T19:18:33.256Z,32.85
2023-05-25T19:21:07.553Z,36.67
2023-05-25T19:23:41.682Z,31.92
2023-05-25T19:26:15.444Z,30.63
2023-05-25T19:28:50.586Z,31.50
2023-05-25T19:31:24.288Z,34.83
2023-05-25T19:33:58.009Z,36.70
2023-05-25T19:36:32.748Z,35.38
2023-05-25T19:39:06.653Z,33.72
2023-05-25T19:41:41.702Z,42.80
2023-05-25T19:44:16.832Z,35.97
2023-05-25T19:46:50.733Z,33.05
2023-05-25T19:49:24.479Z,33.80
2023-05-25T19:51:58.431Z,32.05
2023-05-25T19:54:32.105Z,31.23
2023-05-25T19:57:06.827Z,35.00
2023-05-25T19:59:42.057Z,33.30
2023-05-25T20:02:15.777Z,38.55
2023-05-25T20:04:49.519Z,30.25
2023-05-25T20:07:23.921Z,37.00
2023-05-25T20:09:57.572Z,31.38
2023-05-25T20:12:31.296Z,33.72
2023-05-25T20:15:06.718Z,35.72
2023-05-25T20:17:40.525Z,35.53
2023-05-25T20:20:14.637Z,34.95
2023-05-25T20:22:48.322Z,35.65
2023-05-25T20:25:22.092Z,30.70
2023-05-25T20:27:55.770Z,32.22
2023-05-25T20:30:30.815Z,30.90
2023-05-25T20:33:04.603Z,32.95
2023-05-25T20:35:38.708Z,30.88
2023-05-25T20:38:12.336Z,29.85
2023-05-25T20:40:46.156Z,30.23
2023-05-25T20:43:19.768Z,34.28
2023-05-25T20:45:54.780Z,35.83
2023-05-25T20:48:31.387Z,32.95
2023-05-25T20:51:05.008Z,36.25
2023-05-25T20:53:38.592Z,35.33
2023-05-25T20:56:12.453Z,36.50
2023-05-25T20:58:46.144Z,32.33
2023-05-25T21:01:21.327Z,27.42
2023-05-25T21:03:55.096Z,33.08
2023-05-25T21:06:28.782Z,33.35
2023-05-25T21:09:02.389Z,39.35
2023-05-25T21:11:36.118Z,30.33
2023-05-25T21:14:09.654Z,34.88
2023-05-25T21:16:45.875Z,34.95
2023-05-25T21:19:19.465Z,33.15
2023-05-25T21:21:53.193Z,27.45
2023-05-25T21:24:26.718Z,32.70
2023-05-25T21:27:00.231Z,30.60
2023-05-25T21:29:33.766Z,31.60
2023-05-25T21:32:08.888Z,29.00
2023-05-25T21:34:42.468Z,29.67
2023-05-25T21:37:16.151Z,31.45
2023-05-25T21:39:49.728Z,30.75
2023-05-25T21:42:23.292Z,32.60
2023-05-25T21:44:56.848Z,27.58
2023-05-25T21:47:31.891Z,29.40
2023-05-25T21:50:06.284Z,28.45
2023-05-25T21:52:39.808Z,29.13
2023-05-25T21:55:13.465Z,31.40
2023-05-25T21:57:46.952Z,30.15
2023-05-25T22:00:20.688Z,28.60
2023-05-25T22:02:55.696Z,34.38
2023-05-25T22:05:34.124Z,37.53
2023-05-25T22:08:08.838Z,31.75
2023-05-25T22:10:42.412Z,30.25
2023-05-25T22:13:15.951Z,32.63
2023-05-25T22:15:49.504Z,31.30
2023-05-25T22:18:24.435Z,33.53
2023-05-25T22:20:58.162Z,38.15
2023-05-25T22:23:31.755Z,37.92
2023-05-25T22:26:05.812Z,35.00
2023-05-25T22:28:39.421Z,33.28
2023-05-25T22:31:13.133Z,30.27
2023-05-25T22:33:48.153Z,37.03
2023-05-25T22:36:21.735Z,42.53
2023-05-25T22:38:55.269Z,35.97
2023-05-25T22:41:28.866Z,29.05
2023-05-25T22:44:02.386Z,36.13
2023-05-25T22:46:35.995Z,36.72
2023-05-25T22:49:10.995Z,35.42
2023-05-25T22:51:44.565Z,30.35
2023-05-25T22:54:19.371Z,35.38
2023-05-25T22:56:52.902Z,35.15
2023-05-25T22:59:26.559Z,33.03
2023-05-25T23:02:00.202Z,35.22
2023-05-25T23:04:36.534Z,33.28
2023-05-25T23:07:10.117Z,33.63
2023-05-25T23:09:43.671Z,31.13
2023-05-25T23:12:17.200Z,34.00
2023-05-25T23:14:51.890Z,33.67
2023-05-25T23:17:25.506Z,33.53
2023-05-25T23:20:01.989Z,36.30
2023-05-25T23:22:35.570Z,29.40
2023-05-25T23:25:10.373Z,33.60
2023-05-25T23:27:43.899Z,33.40
2023-05-25T23:30:18.308Z,30.02
2023-05-25T23:32:51.907Z,32.83
2023-05-25T23:35:26.924Z,32.65
2023-05-25T23:38:01.853Z,33.75
2023-05-25T23:40:35.376Z,30.20
2023-05-25T23:43:08.906Z,35.30
2023-05-25T23:45:42.557Z,31.60
2023-05-25T23:48:16.596Z,32.72
2023-05-25T23:50:51.541Z,30.10
2023-05-25T23:53:25.076Z,38.60
2023-05-25T23:55:58.619Z,38.92
2023-05-25T23:58:32.178Z,33.70
